»·PEaware :: N219SW KGJT-KPVU

N219SW :: KGJT-KPVU

FLIGHT INFORMATION

Flight Status: Arrived
Operator: Privately registered:
United States
More flights under this callsign
Pilot: Scott W. (15065)
Aircraft: CESSNA 208 CARAVAN
(C208)
More flights by this aircraft type
Origin: KGJT Walker
United States
Destination: KPVU Provo Mun
United States
More flights between these airports :: More routes between these airports
Route: JNC V134 JISIG PUC V134 YMONT
File this flight plan on PilotEdge
Remarks:
Altitude:
(Current/Filed)
12,000ft
Speed:
(Current/Filed)
150kts
Departed: 24-Jul-17 05:11 PM
Arrived: 24-Jul-17 06:15 PM
Distance/Time
Traveled:
161nm/1:04
Distance/Time
To Go:
Arrived

Flight Plot

Page will automatically refresh every two minutes.

Flight plan parsing failed; only flown route is shown


Map Options




Map Legend


Flown Route
Filed Route
Departure Airport
Arrival Airport
Navaid (VOR, NDB)
Fix

Horizontal Profiles

Position Reports

Time Latitude Longitude Heading Altitude Ground
Speed
24-Jul-17 17:08 39.119102 -108.521326 0 4862ft 0kts
24-Jul-17 17:09 39.119103 -108.521223 53 4862ft 4kts
24-Jul-17 17:10 39.122043 -108.523252 312 4862ft 16kts
24-Jul-17 17:11 39.125649 -108.529684 304 4862ft 24kts
24-Jul-17 17:12 39.129708 -108.537143 306 4862ft 26kts
24-Jul-17 17:13 39.133951 -108.544613 326 4862ft 19kts
24-Jul-17 17:14 39.133323 -108.541333 125 4862ft 65kts
24-Jul-17 17:15 39.115539 -108.508071 126 5390ft 130kts
24-Jul-17 17:16 39.089615 -108.470038 178 6096ft 149kts
24-Jul-17 17:17 39.082620 -108.509889 284 6852ft 144kts
24-Jul-17 17:18 39.085018 -108.561583 267 7549ft 146kts
24-Jul-17 17:19 39.080756 -108.613798 263 8248ft 146kts
24-Jul-17 17:20 39.075090 -108.665447 263 8944ft 146kts
24-Jul-17 17:21 39.069129 -108.716969 262 9643ft 145kts
24-Jul-17 17:22 39.063136 -108.768115 263 10339ft 144kts
24-Jul-17 17:23 39.067707 -108.817461 290 11044ft 141kts
24-Jul-17 17:24 39.081159 -108.864815 291 11739ft 140kts
24-Jul-17 17:25 39.095797 -108.915878 291 11838ft 163kts
24-Jul-17 17:26 39.111831 -108.971985 290 11835ft 169kts
24-Jul-17 17:27 39.128125 -109.028952 290 11830ft 170kts
24-Jul-17 17:28 39.144446 -109.086272 289 11827ft 171kts
24-Jul-17 17:29 39.160848 -109.144033 289 11827ft 172kts
24-Jul-17 17:30 39.177331 -109.202241 289 11828ft 175kts
24-Jul-17 17:31 39.194095 -109.261494 289 11824ft 176kts
24-Jul-17 17:32 39.210858 -109.320844 289 11817ft 176kts
24-Jul-17 17:33 39.227652 -109.380433 289 11808ft 176kts
24-Jul-17 17:34 39.244390 -109.439963 289 11799ft 176kts
24-Jul-17 17:35 39.261095 -109.499542 289 11797ft 176kts
24-Jul-17 17:36 39.277743 -109.559032 289 11797ft 176kts
24-Jul-17 17:37 39.294433 -109.618814 289 11797ft 176kts
24-Jul-17 17:38 39.307589 -109.666031 288 11797ft 176kts
24-Jul-17 17:39 39.324194 -109.725751 288 11797ft 176kts
24-Jul-17 17:40 39.340705 -109.785292 288 11797ft 176kts
24-Jul-17 17:41 39.357520 -109.846082 288 11600ft 183kts
24-Jul-17 17:42 39.374817 -109.908725 288 11300ft 186kts
24-Jul-17 17:43 39.392225 -109.971912 288 10996ft 187kts
24-Jul-17 17:44 39.409632 -110.035270 288 10693ft 187kts
24-Jul-17 17:45 39.426881 -110.098177 288 10406ft 186kts
24-Jul-17 17:46 39.443692 -110.159613 288 10429ft 178kts
24-Jul-17 17:47 39.460140 -110.219900 288 10435ft 177kts
24-Jul-17 17:48 39.476421 -110.279739 288 10504ft 174kts
24-Jul-17 17:49 39.492657 -110.339549 288 10508ft 177kts
24-Jul-17 17:50 39.508942 -110.399680 288 10508ft 177kts
24-Jul-17 17:51 39.525233 -110.459974 288 10508ft 177kts
24-Jul-17 17:52 39.541510 -110.520351 288 10508ft 177kts
24-Jul-17 17:53 39.557759 -110.580766 288 10508ft 177kts
24-Jul-17 17:54 39.573932 -110.641038 288 10508ft 177kts
24-Jul-17 17:55 39.589550 -110.699398 287 10508ft 177kts
24-Jul-17 17:56 39.607249 -110.758912 305 10513ft 178kts
24-Jul-17 17:57 39.636976 -110.810516 305 10508ft 178kts
24-Jul-17 17:58 39.666744 -110.862213 305 10508ft 178kts
24-Jul-17 17:59 39.696421 -110.913886 305 10508ft 178kts
24-Jul-17 18:00 39.725935 -110.965364 305 10508ft 178kts
24-Jul-17 18:01 39.755480 -111.016996 305 10508ft 178kts
24-Jul-17 18:02 39.784960 -111.068611 305 10508ft 177kts
24-Jul-17 18:03 39.814364 -111.120162 305 10508ft 177kts
24-Jul-17 18:04 39.843735 -111.171734 305 10485ft 178kts
24-Jul-17 18:05 39.873148 -111.223486 305 10457ft 177kts
24-Jul-17 18:06 39.902389 -111.275015 305 10429ft 177kts
24-Jul-17 18:07 39.931656 -111.326686 305 10402ft 177kts
24-Jul-17 18:08 39.960784 -111.378199 305 10380ft 176kts
24-Jul-17 18:09 39.989752 -111.429492 305 10380ft 176kts
24-Jul-17 18:10 40.018738 -111.480909 305 10380ft 176kts
24-Jul-17 18:11 40.052224 -111.527081 317 10380ft 177kts
24-Jul-17 18:12 40.088290 -111.566073 320 9635ft 168kts
24-Jul-17 18:13 40.115136 -111.602422 307 8402ft 152kts
24-Jul-17 18:14 40.139752 -111.643909 306 6913ft 141kts
24-Jul-17 18:15 40.164353 -111.676133 327 5556ft 122kts
24-Jul-17 18:16 40.189297 -111.696195 325 4820ft 98kts
24-Jul-17 18:17 40.210968 -111.715472 326 4508ft 93kts
24-Jul-17 18:18 40.219108 -111.721391 75 4502ft 15kts
24-Jul-17 18:19 40.219419 -111.719243 99 4502ft 0kts

Navigation Log

Ident Type
Flight plan parsing failed, navigation log unavailable